createdAt,value
2018-11-28T00:00:12.541Z,62.27
2018-11-28T00:02:40.934Z,56.83
2018-11-28T00:05:10.937Z,54.17
2018-11-28T00:07:39.642Z,59.03
2018-11-28T00:10:12.076Z,56.23
2018-11-28T00:12:41.503Z,58.13
2018-11-28T00:15:11.260Z,55.43
2018-11-28T00:17:39.704Z,59.77
2018-11-28T00:20:18.540Z,59.60
2018-11-28T00:22:47.091Z,62.07
2018-11-28T00:25:16.111Z,57.70
2018-11-28T00:27:44.899Z,55.17
2018-11-28T00:30:22.297Z,58.83
2018-11-28T00:32:51.143Z,54.30
2018-11-28T00:35:20.696Z,60.63
2018-11-28T00:37:49.422Z,59.67
2018-11-28T00:40:19.692Z,53.37
2018-11-28T00:42:48.131Z,54.03
2018-11-28T00:45:18.984Z,49.47
2018-11-28T00:47:47.476Z,57.87
2018-11-28T00:50:19.050Z,56.57
2018-11-28T00:52:47.449Z,57.87
2018-11-28T00:55:17.036Z,55.77
2018-11-28T00:57:46.045Z,54.00
2018-11-28T01:00:18.996Z,53.60
2018-11-28T01:02:48.288Z,62.07
2018-11-28T01:05:17.048Z,50.87
2018-11-28T01:07:46.588Z,56.83
2018-11-28T01:10:16.244Z,56.20
2018-11-28T01:12:45.257Z,55.80
2018-11-28T01:15:15.230Z,52.40
2018-11-28T01:17:44.420Z,57.67
2018-11-28T01:20:14.449Z,52.20
2018-11-28T01:22:42.862Z,60.97
2018-11-28T01:25:12.646Z,62.63
2018-11-28T01:27:41.592Z,55.00
2018-11-28T01:30:15.987Z,63.17
2018-11-28T01:32:44.946Z,54.60
2018-11-28T01:35:15.439Z,64.60
2018-11-28T01:37:44.225Z,57.93
2018-11-28T01:40:14.986Z,58.73
2018-11-28T01:42:43.811Z,55.23
2018-11-28T01:45:15.647Z,56.20
2018-11-28T01:47:44.319Z,59.33
2018-11-28T01:50:14.027Z,60.67
2018-11-28T01:52:42.405Z,58.13
2018-11-28T01:55:12.920Z,53.20
2018-11-28T01:57:41.686Z,59.07
2018-11-28T02:00:15.729Z,55.40
2018-11-28T02:02:44.453Z,52.40
2018-11-28T02:05:13.103Z,55.00
2018-11-28T02:07:41.865Z,58.13
2018-11-28T02:10:14.325Z,56.13
2018-11-28T02:12:43.621Z,57.33
2018-11-28T02:15:20.606Z,57.27
2018-11-28T02:17:48.987Z,56.77
2018-11-28T02:20:18.239Z,55.83
2018-11-28T02:22:47.189Z,52.13
2018-11-28T02:25:18.041Z,52.03
2018-11-28T02:27:47.767Z,53.67
2018-11-28T02:30:18.996Z,55.40
2018-11-28T02:32:48.446Z,54.67
2018-11-28T02:35:17.915Z,52.03
2018-11-28T02:37:46.689Z,54.27
2018-11-28T02:40:16.178Z,54.57
2018-11-28T02:42:44.987Z,50.80
2018-11-28T02:45:16.404Z,50.30
2018-11-28T02:47:44.836Z,54.93
2018-11-28T02:50:13.207Z,53.53
2018-11-28T02:52:41.588Z,57.87
2018-11-28T02:55:13.098Z,58.23
2018-11-28T02:57:42.701Z,53.67
2018-11-28T03:00:13.669Z,59.10
2018-11-28T03:02:42.383Z,53.77
2018-11-28T03:05:12.539Z,57.37
2018-11-28T03:07:41.049Z,48.13
2018-11-28T03:10:18.120Z,52.27
2018-11-28T03:12:46.519Z,54.90
2018-11-28T03:15:28.064Z,50.97
2018-11-28T03:17:56.570Z,57.97
2018-11-28T03:20:24.974Z,54.80
2018-11-28T03:22:53.335Z,53.50
2018-11-28T03:25:22.611Z,58.17
2018-11-28T03:27:51.253Z,54.77
2018-11-28T03:30:19.662Z,51.73
2018-11-28T03:32:48.205Z,49.20
2018-11-28T03:35:16.851Z,51.73
2018-11-28T03:37:45.899Z,50.60
2018-11-28T03:40:14.649Z,52.37
2018-11-28T03:42:43.037Z,55.93
2018-11-28T03:45:12.611Z,47.00
2018-11-28T03:47:41.651Z,52.53
2018-11-28T03:50:11.467Z,52.53
2018-11-28T03:52:40.444Z,52.40
2018-11-28T03:55:10.581Z,51.23
2018-11-28T03:57:39.119Z,45.47
2018-11-28T04:00:11.549Z,48.43
2018-11-28T04:02:39.971Z,48.47
2018-11-28T04:05:08.796Z,47.33
2018-11-28T04:07:37.176Z,49.43
2018-11-28T04:10:08.376Z,47.60
2018-11-28T04:12:36.990Z,47.23
2018-11-28T04:15:13.808Z,54.70
2018-11-28T04:17:42.530Z,47.73
2018-11-28T04:20:13.616Z,47.87
2018-11-28T04:22:41.992Z,53.17
2018-11-28T04:25:11.300Z,45.07
2018-11-28T04:27:39.834Z,48.97
2018-11-28T04:30:11.419Z,45.80
2018-11-28T04:32:39.793Z,42.37
2018-11-28T04:35:09.642Z,49.50
2018-11-28T04:37:38.023Z,48.80
2018-11-28T04:40:11.222Z,46.10
2018-11-28T04:42:39.945Z,47.20
2018-11-28T04:45:10.986Z,45.40
2018-11-28T04:47:39.419Z,45.77
2018-11-28T04:50:09.829Z,49.47
2018-11-28T04:52:38.682Z,42.73
2018-11-28T04:55:12.209Z,47.53
2018-11-28T04:57:41.186Z,47.90
2018-11-28T05:00:17.999Z,46.00
2018-11-28T05:02:46.831Z,47.13
2018-11-28T05:05:22.941Z,48.50
2018-11-28T05:07:52.527Z,50.60
2018-11-28T05:10:25.038Z,50.47
2018-11-28T05:12:54.097Z,53.60
2018-11-28T05:15:25.088Z,44.10
2018-11-28T05:17:54.245Z,48.07
2018-11-28T05:20:27.745Z,43.03
2018-11-28T05:22:56.125Z,44.27
2018-11-28T05:25:25.927Z,45.97
2018-11-28T05:27:55.501Z,47.03
2018-11-28T05:30:25.441Z,46.67
2018-11-28T05:32:53.872Z,44.33
2018-11-28T05:35:29.739Z,47.87
2018-11-28T05:37:58.283Z,46.20
2018-11-28T05:40:27.734Z,46.20
2018-11-28T05:42:56.678Z,44.70
2018-11-28T05:45:25.179Z,46.70
2018-11-28T05:47:53.575Z,46.87
2018-11-28T05:50:22.531Z,45.10
2018-11-28T05:52:51.476Z,44.37
2018-11-28T05:55:21.336Z,44.53
2018-11-28T05:57:49.815Z,43.93
2018-11-28T06:00:27.847Z,43.27
2018-11-28T06:02:56.250Z,54.10
2018-11-28T06:05:24.679Z,49.17
2018-11-28T06:07:53.162Z,45.03
2018-11-28T06:10:21.899Z,42.10
2018-11-28T06:12:50.420Z,48.70
2018-11-28T06:15:19.024Z,51.47
2018-11-28T06:17:47.456Z,45.17
2018-11-28T06:20:16.272Z,43.63
2018-11-28T06:22:45.414Z,46.80
2018-11-28T06:25:16.203Z,48.13
2018-11-28T06:27:44.335Z,43.27
2018-11-28T06:30:14.214Z,47.07
2018-11-28T06:32:42.652Z,48.57
2018-11-28T06:35:11.572Z,49.37
2018-11-28T06:37:40.471Z,42.93
2018-11-28T06:40:13.714Z,45.07
2018-11-28T06:42:42.353Z,39.93
2018-11-28T06:45:20.236Z,48.00
2018-11-28T06:47:49.089Z,45.07
2018-11-28T06:50:18.597Z,44.33
2018-11-28T06:52:48.715Z,47.47
2018-11-28T06:55:18.475Z,46.10
2018-11-28T06:57:46.869Z,43.17
2018-11-28T07:00:21.491Z,45.57
2018-11-28T07:02:51.985Z,42.27
2018-11-28T07:05:21.090Z,39.03
2018-11-28T07:07:49.776Z,41.33
2018-11-28T07:10:19.611Z,39.37
2018-11-28T07:12:48.077Z,39.67
2018-11-28T07:15:17.538Z,40.23
2018-11-28T07:17:46.670Z,43.90
2018-11-28T07:20:16.311Z,37.17
2018-11-28T07:22:45.725Z,38.30
2018-11-28T07:25:16.504Z,37.57
2018-11-28T07:27:46.457Z,33.20
2018-11-28T07:30:18.771Z,35.50
2018-11-28T07:32:47.920Z,40.93
2018-11-28T07:35:16.343Z,36.87
2018-11-28T07:37:44.873Z,35.67
2018-11-28T07:40:16.335Z,41.00
2018-11-28T07:42:53.401Z,36.60
2018-11-28T07:45:21.836Z,37.80
2018-11-28T07:47:50.562Z,32.63
2018-11-28T07:50:19.015Z,35.57
2018-11-28T07:52:47.483Z,33.23
2018-11-28T07:55:15.909Z,31.97
2018-11-28T07:57:44.383Z,34.27
2018-11-28T08:00:14.827Z,36.67
2018-11-28T08:02:43.857Z,34.63
2018-11-28T08:05:12.683Z,34.90
2018-11-28T08:07:41.917Z,30.87
2018-11-28T08:10:16.354Z,34.00
2018-11-28T08:12:44.738Z,33.33
2018-11-28T08:15:13.243Z,36.73
2018-11-28T08:17:42.052Z,32.03
2018-11-28T08:20:10.518Z,31.27
2018-11-28T08:22:39.665Z,33.97
2018-11-28T08:25:09.828Z,31.90
2018-11-28T08:27:38.260Z,34.27
2018-11-28T08:30:12.889Z,32.47
2018-11-28T08:32:41.718Z,30.77
2018-11-28T08:35:10.843Z,35.13
2018-11-28T08:37:39.210Z,36.90
2018-11-28T08:40:12.896Z,30.30
2018-11-28T08:42:41.495Z,30.57
2018-11-28T08:45:15.621Z,31.20
2018-11-28T08:47:45.090Z,31.67
2018-11-28T08:50:46.408Z,33.23
2018-11-28T08:53:14.924Z,38.93
2018-11-28T08:55:43.433Z,34.00
2018-11-28T08:58:11.817Z,27.97
2018-11-28T09:00:40.382Z,31.07
2018-11-28T09:03:08.852Z,31.60
2018-11-28T09:05:37.266Z,32.70
2018-11-28T09:08:05.644Z,32.43
2018-11-28T09:10:34.096Z,35.57
2018-11-28T09:13:04.314Z,29.20
2018-11-28T09:15:31.670Z,29.17
2018-11-28T09:18:00.050Z,29.17
2018-11-28T09:20:28.426Z,31.57
2018-11-28T09:22:56.946Z,32.37
2018-11-28T09:25:25.396Z,28.93
2018-11-28T09:27:57.996Z,29.53
2018-11-28T09:30:26.452Z,27.53
2018-11-28T09:32:54.825Z,29.23
2018-11-28T09:35:23.595Z,29.80
2018-11-28T09:37:52.063Z,32.33
2018-11-28T09:40:24.501Z,29.10
2018-11-28T09:42:55.042Z,26.00
2018-11-28T09:45:23.635Z,24.97
2018-11-28T09:47:52.065Z,27.30
2018-11-28T09:50:21.540Z,25.03
2018-11-28T09:52:50.204Z,25.90
2018-11-28T09:55:20.155Z,26.73
2018-11-28T09:57:48.771Z,31.20
2018-11-28T10:00:18.057Z,28.63
2018-11-28T10:02:46.812Z,31.60
2018-11-28T10:05:26.766Z,27.13
2018-11-28T10:07:55.280Z,28.57
2018-11-28T10:10:23.685Z,29.87
2018-11-28T10:12:52.600Z,29.07
2018-11-28T10:15:22.348Z,27.47
2018-11-28T10:17:50.921Z,26.77
2018-11-28T10:20:20.053Z,34.47
2018-11-28T10:22:49.901Z,31.60
2018-11-28T10:25:22.343Z,28.43
2018-11-28T10:27:56.496Z,28.60
2018-11-28T10:30:27.134Z,27.53
2018-11-28T10:32:55.956Z,29.77
2018-11-28T10:35:24.394Z,30.47
2018-11-28T10:37:53.186Z,30.43
2018-11-28T10:40:22.888Z,31.43
2018-11-28T10:42:53.469Z,28.37
2018-11-28T10:45:23.972Z,30.93
2018-11-28T10:47:52.502Z,31.07
2018-11-28T10:50:20.919Z,26.93
2018-11-28T10:52:49.673Z,26.97
2018-11-28T10:55:23.431Z,28.50
2018-11-28T10:57:52.085Z,29.00
2018-11-28T11:00:27.675Z,24.97
2018-11-28T11:03:01.433Z,25.07
2018-11-28T11:05:35.363Z,29.97
2018-11-28T11:08:09.051Z,28.07
2018-11-28T11:10:43.551Z,24.13
2018-11-28T11:13:16.818Z,28.87
2018-11-28T11:15:50.774Z,25.23
2018-11-28T11:18:19.147Z,25.83
2018-11-28T11:20:47.547Z,30.37
2018-11-28T11:23:15.995Z,29.53
2018-11-28T11:25:44.717Z,29.40
2018-11-28T11:28:13.163Z,31.30
2018-11-28T11:30:41.715Z,27.07
2018-11-28T11:33:10.607Z,25.40
2018-11-28T11:35:39.391Z,30.50
2018-11-28T11:38:08.147Z,27.57
2018-11-28T11:40:36.955Z,24.80
2018-11-28T11:43:06.185Z,26.53
2018-11-28T11:45:34.630Z,52.57
2018-11-28T11:48:03.087Z,29.13
2018-11-28T11:50:32.275Z,24.37
2018-11-28T11:53:00.657Z,29.30
2018-11-28T11:55:29.383Z,49.40
2018-11-28T11:57:58.479Z,29.17
2018-11-28T12:00:27.923Z,33.80
2018-11-28T12:03:03.592Z,30.70
2018-11-28T12:05:31.952Z,26.43
2018-11-28T12:08:00.320Z,28.67
2018-11-28T12:10:29.076Z,30.20
2018-11-28T12:12:57.450Z,25.47
2018-11-28T12:15:25.845Z,26.17
2018-11-28T12:17:54.335Z,26.63
2018-11-28T12:20:26.400Z,27.90
2018-11-28T12:22:54.803Z,29.40
2018-11-28T12:25:23.760Z,30.30
2018-11-28T12:27:52.266Z,29.80
2018-11-28T12:30:20.644Z,27.30
2018-11-28T12:32:49.054Z,31.80
2018-11-28T12:35:18.399Z,30.00
2018-11-28T12:37:47.216Z,28.60
2018-11-28T12:40:16.611Z,27.47
2018-11-28T12:42:49.675Z,24.17
2018-11-28T12:45:19.044Z,26.33
2018-11-28T12:47:48.042Z,28.57
2018-11-28T12:50:21.219Z,32.33
2018-11-28T12:52:50.047Z,27.43
2018-11-28T12:55:19.674Z,27.00
2018-11-28T12:57:48.752Z,28.63
2018-11-28T13:00:18.980Z,25.67
2018-11-28T13:02:47.484Z,29.37
2018-11-28T13:05:18.090Z,30.23
2018-11-28T13:07:46.530Z,28.07
2018-11-28T13:10:31.756Z,29.77
2018-11-28T13:13:00.159Z,29.47
2018-11-28T13:15:28.953Z,26.23
2018-11-28T13:17:57.346Z,27.37
2018-11-28T13:20:25.836Z,29.10
2018-11-28T13:22:55.459Z,29.47
2018-11-28T13:25:25.777Z,27.43
2018-11-28T13:27:54.350Z,32.50
2018-11-28T13:30:25.610Z,30.37
2018-11-28T13:32:55.309Z,28.17
2018-11-28T13:35:25.596Z,23.70
2018-11-28T13:37:55.372Z,22.63
2018-11-28T13:40:24.091Z,21.23
2018-11-28T13:42:52.723Z,25.37
2018-11-28T13:45:22.564Z,26.83
2018-11-28T13:47:52.077Z,28.27
2018-11-28T13:50:21.019Z,25.70
2018-11-28T13:52:49.986Z,25.70
2018-11-28T13:55:38.512Z,25.70
2018-11-28T13:57:58.389Z,30.73
2018-11-28T14:00:26.861Z,27.40
2018-11-28T14:02:56.534Z,27.37
2018-11-28T14:05:24.921Z,26.40
2018-11-28T14:07:53.400Z,26.57
2018-11-28T14:10:22.101Z,27.03
2018-11-28T14:12:50.898Z,28.77
2018-11-28T14:15:22.128Z,24.70
2018-11-28T14:17:55.024Z,25.07
2018-11-28T14:20:23.589Z,24.57
2018-11-28T14:22:52.243Z,28.10
2018-11-28T14:25:20.625Z,29.27
2018-11-28T14:27:49.026Z,27.23
2018-11-28T14:30:19.609Z,26.73
2018-11-28T14:32:48.249Z,32.30
2018-11-28T14:35:16.774Z,26.93
2018-11-28T14:37:45.555Z,27.43
2018-11-28T14:40:15.418Z,30.63
2018-11-28T14:42:44.906Z,28.43
2018-11-28T14:45:15.429Z,33.53
2018-11-28T14:47:44.328Z,27.80
2018-11-28T14:50:18.472Z,30.30
2018-11-28T14:52:47.120Z,32.03
2018-11-28T14:55:18.873Z,33.33
2018-11-28T14:57:47.432Z,25.97
2018-11-28T15:00:20.722Z,36.67
2018-11-28T15:02:52.878Z,32.33
2018-11-28T15:05:32.830Z,31.10
2018-11-28T15:08:06.866Z,28.50
2018-11-28T15:10:42.793Z,31.90
2018-11-28T15:13:11.275Z,39.83
2018-11-28T15:15:39.692Z,28.57
2018-11-28T15:18:08.096Z,31.87
2018-11-28T15:20:36.719Z,29.27
2018-11-28T15:23:05.621Z,31.13
2018-11-28T15:25:34.103Z,29.60
2018-11-28T15:28:02.532Z,29.60
2018-11-28T15:30:31.072Z,32.83
2018-11-28T15:32:59.452Z,33.77
2018-11-28T15:35:28.044Z,31.73
2018-11-28T15:37:56.433Z,31.03
2018-11-28T15:40:24.855Z,31.47
2018-11-28T15:42:53.283Z,34.43
2018-11-28T15:45:21.709Z,30.27
2018-11-28T15:47:50.213Z,32.20
2018-11-28T15:50:18.798Z,34.97
2018-11-28T15:52:47.273Z,31.23
2018-11-28T15:55:15.747Z,33.30
2018-11-28T15:57:44.137Z,35.43
2018-11-28T16:00:17.361Z,29.43
2018-11-28T16:02:45.899Z,32.73
2018-11-28T16:05:14.349Z,31.77
2018-11-28T16:07:42.935Z,33.10
2018-11-28T16:10:17.995Z,36.50
2018-11-28T16:12:47.775Z,39.50
2018-11-28T16:15:19.565Z,32.67
2018-11-28T16:17:47.989Z,37.17
2018-11-28T16:20:16.919Z,32.97
2018-11-28T16:22:45.764Z,35.80
2018-11-28T16:25:14.247Z,36.83
2018-11-28T16:27:42.722Z,31.97
2018-11-28T16:30:14.392Z,35.33
2018-11-28T16:32:44.895Z,37.13
2018-11-28T16:35:14.438Z,39.60
2018-11-28T16:37:42.913Z,36.03
2018-11-28T16:40:13.674Z,34.67
2018-11-28T16:42:42.143Z,35.87
2018-11-28T16:45:25.438Z,35.57
2018-11-28T16:47:53.893Z,36.63
2018-11-28T16:50:22.311Z,34.80
2018-11-28T16:52:50.730Z,36.83
2018-11-28T16:55:19.235Z,37.30
2018-11-28T16:57:49.178Z,38.23
2018-11-28T17:00:20.132Z,33.23
2018-11-28T17:02:48.636Z,33.30
2018-11-28T17:05:19.067Z,38.23
2018-11-28T17:07:47.894Z,40.90
2018-11-28T17:10:26.248Z,33.17
2018-11-28T17:12:55.404Z,36.33
2018-11-28T17:15:23.866Z,37.00
2018-11-28T17:17:52.638Z,29.17
2018-11-28T17:20:22.344Z,32.57
2018-11-28T17:22:52.254Z,37.07
2018-11-28T17:25:24.085Z,32.63
2018-11-28T17:27:53.160Z,33.37
2018-11-28T17:30:23.028Z,33.33
2018-11-28T17:32:51.680Z,36.33
2018-11-28T17:35:20.191Z,33.93
2018-11-28T17:37:48.577Z,40.20
2018-11-28T17:40:19.482Z,41.83
2018-11-28T17:42:49.320Z,36.07
2018-11-28T17:45:18.444Z,35.00
2018-11-28T17:47:46.976Z,34.37
2018-11-28T17:50:18.557Z,33.80
2018-11-28T17:53:01.375Z,39.00
2018-11-28T17:55:35.828Z,33.40
2018-11-28T17:58:04.776Z,33.23
2018-11-28T18:00:33.369Z,34.40
2018-11-28T18:03:02.016Z,35.47
2018-11-28T18:05:30.716Z,34.17
2018-11-28T18:07:59.105Z,37.40
2018-11-28T18:10:27.572Z,40.30
2018-11-28T18:13:17.527Z,36.97
2018-11-28T18:15:48.457Z,32.30
2018-11-28T18:18:20.061Z,34.07
2018-11-28T18:20:50.359Z,33.87
2018-11-28T18:23:17.103Z,32.23
2018-11-28T18:25:46.270Z,33.60
2018-11-28T18:28:14.773Z,34.13
2018-11-28T18:30:43.585Z,35.53
2018-11-28T18:33:13.432Z,35.13
2018-11-28T18:35:41.894Z,31.90
2018-11-28T18:38:10.429Z,39.77
2018-11-28T18:40:39.285Z,34.83
2018-11-28T18:43:08.564Z,37.30
2018-11-28T18:45:38.800Z,35.23
2018-11-28T18:48:07.330Z,36.53
2018-11-28T18:50:36.109Z,34.10
2018-11-28T18:53:04.510Z,34.00
2018-11-28T18:55:32.939Z,35.63
2018-11-28T18:58:01.768Z,35.20
2018-11-28T19:00:30.382Z,38.47
2018-11-28T19:02:58.850Z,33.40
2018-11-28T19:05:27.443Z,35.93
2018-11-28T19:07:55.861Z,37.37
2018-11-28T19:10:26.539Z,36.33
2018-11-28T19:12:54.072Z,37.00
2018-11-28T19:15:25.631Z,38.13
2018-11-28T19:17:54.815Z,37.10
2018-11-28T19:20:24.157Z,42.70
2018-11-28T19:22:53.567Z,39.30
2018-11-28T19:25:23.830Z,37.37
2018-11-28T19:27:52.411Z,41.17
2018-11-28T19:30:31.085Z,38.83
2018-11-28T19:32:57.014Z,38.10
2018-11-28T19:35:25.430Z,41.00
2018-11-28T19:37:53.875Z,39.50
2018-11-28T19:40:25.309Z,35.97
2018-11-28T19:42:53.803Z,37.60
2018-11-28T19:45:22.873Z,44.30
2018-11-28T19:47:51.226Z,38.70
2018-11-28T19:50:22.457Z,40.07
2018-11-28T19:52:50.913Z,40.37
2018-11-28T19:55:19.691Z,37.73
2018-11-28T19:57:48.127Z,36.33
2018-11-28T20:00:17.925Z,36.10
2018-11-28T20:02:46.857Z,37.27
2018-11-28T20:05:15.351Z,38.17
2018-11-28T20:07:46.269Z,36.00
2018-11-28T20:10:16.463Z,38.43
2018-11-28T20:12:45.026Z,33.93
2018-11-28T20:15:15.790Z,35.30
2018-11-28T20:17:44.229Z,38.53
2018-11-28T20:20:13.785Z,35.27
2018-11-28T20:22:42.369Z,33.00
2018-11-28T20:25:13.949Z,36.03
2018-11-28T20:27:43.108Z,35.40
2018-11-28T20:30:23.968Z,37.00
2018-11-28T20:32:52.408Z,38.70
2018-11-28T20:35:20.808Z,39.57
2018-11-28T20:37:49.255Z,36.37
2018-11-28T20:40:18.414Z,37.93
2018-11-28T20:42:48.571Z,40.93
2018-11-28T20:45:17.432Z,39.67
2018-11-28T20:47:45.830Z,40.63
2018-11-28T20:50:17.178Z,39.10
2018-11-28T20:52:54.875Z,40.53
2018-11-28T20:55:19.370Z,39.50
2018-11-28T20:57:48.123Z,40.83
2018-11-28T21:00:17.879Z,41.93
2018-11-28T21:02:46.303Z,37.53
2018-11-28T21:05:14.803Z,38.80
2018-11-28T21:07:43.226Z,36.87
2018-11-28T21:10:19.835Z,41.03
2018-11-28T21:12:48.397Z,38.97
2018-11-28T21:15:17.166Z,40.37
2018-11-28T21:17:46.377Z,40.47
2018-11-28T21:20:16.382Z,45.27
2018-11-28T21:22:49.665Z,42.93
2018-11-28T21:25:18.198Z,38.63
2018-11-28T21:27:47.017Z,40.83
2018-11-28T21:30:16.523Z,38.07
2018-11-28T21:32:45.381Z,39.73
2018-11-28T21:35:15.154Z,39.23
2018-11-28T21:37:43.571Z,42.33
2018-11-28T21:40:12.606Z,35.80
2018-11-28T21:42:41.088Z,43.07
2018-11-28T21:45:13.687Z,44.33
2018-11-28T21:47:42.181Z,43.47
2018-11-28T21:50:16.925Z,41.97
2018-11-28T21:52:45.393Z,37.50
2018-11-28T21:55:18.886Z,41.87
2018-11-28T21:57:47.765Z,37.33
2018-11-28T22:00:18.281Z,39.53
2018-11-28T22:02:46.663Z,39.57
2018-11-28T22:05:15.813Z,37.20
2018-11-28T22:07:44.445Z,42.53
2018-11-28T22:10:15.460Z,46.53
2018-11-28T22:12:44.268Z,40.73
2018-11-28T22:15:13.747Z,40.20
2018-11-28T22:17:43.899Z,43.47
2018-11-28T22:20:13.507Z,44.17
2018-11-28T22:22:42.157Z,42.83
2018-11-28T22:25:12.837Z,43.77
2018-11-28T22:27:41.638Z,41.83
2018-11-28T22:30:17.841Z,39.97
2018-11-28T22:32:46.290Z,41.70
2018-11-28T22:35:14.804Z,42.47
2018-11-28T22:37:43.318Z,39.17
2018-11-28T22:40:13.958Z,45.97
2018-11-28T22:42:42.524Z,41.57
2018-11-28T22:45:19.166Z,51.87
2018-11-28T22:47:47.783Z,43.13
2018-11-28T22:50:16.253Z,46.27
2018-11-28T22:52:44.672Z,46.17
2018-11-28T22:55:15.875Z,43.93
2018-11-28T22:57:45.118Z,42.80
2018-11-28T23:00:16.864Z,41.00
2018-11-28T23:02:55.593Z,44.13
2018-11-28T23:05:26.510Z,40.27
2018-11-28T23:07:55.895Z,40.00
2018-11-28T23:10:24.701Z,42.43
2018-11-28T23:12:53.110Z,38.87
2018-11-28T23:15:22.021Z,43.27
2018-11-28T23:17:55.023Z,46.43
2018-11-28T23:20:19.243Z,41.93
2018-11-28T23:22:47.831Z,40.67
2018-11-28T23:25:16.295Z,37.33
2018-11-28T23:27:44.769Z,37.80
2018-11-28T23:30:14.413Z,41.10
2018-11-28T23:32:42.866Z,37.90
2018-11-28T23:35:12.114Z,39.27
2018-11-28T23:37:42.593Z,39.53
2018-11-28T23:40:14.523Z,41.37
2018-11-28T23:42:42.959Z,43.80
2018-11-28T23:45:12.541Z,44.23
2018-11-28T23:47:42.077Z,39.30
2018-11-28T23:50:13.399Z,42.47
2018-11-28T23:52:42.023Z,36.10
2018-11-28T23:55:15.126Z,41.33
2018-11-28T23:57:43.737Z,39.93
